sensor_id;sensor_type;location;lat;lon;timestamp;pressure;altitude;pressure_sealevel;temperature;humidity
60019;BME280;45870;42.528;26.740;2022-07-06T00:01:49;99497.03;;;22.33;50.67
60019;BME280;45870;42.528;26.740;2022-07-06T00:04:17;99490.06;;;21.83;52.20
60019;BME280;45870;42.528;26.740;2022-07-06T00:06:43;99486.69;;;21.41;53.99
60019;BME280;45870;42.528;26.740;2022-07-06T00:09:09;99486.31;;;22.23;51.30
60019;BME280;45870;42.528;26.740;2022-07-06T00:11:34;99489.28;;;22.35;50.49
60019;BME280;45870;42.528;26.740;2022-07-06T00:14:00;99485.88;;;22.30;49.87
60019;BME280;45870;42.528;26.740;2022-07-06T00:16:26;99454.31;;;21.97;49.72
60019;BME280;45870;42.528;26.740;2022-07-06T00:18:52;99394.31;;;21.68;49.79
60019;BME280;45870;42.528;26.740;2022-07-06T00:21:17;99426.16;;;21.69;49.59
60019;BME280;45870;42.528;26.740;2022-07-06T00:23:44;99462.28;;;21.84;49.86
60019;BME280;45870;42.528;26.740;2022-07-06T00:26:10;99475.16;;;21.75;50.45
60019;BME280;45870;42.528;26.740;2022-07-06T00:28:35;99436.09;;;21.56;50.04
60019;BME280;45870;42.528;26.740;2022-07-06T00:31:01;99471.22;;;21.46;50.68
60019;BME280;45870;42.528;26.740;2022-07-06T00:33:27;99465.31;;;21.16;51.95
60019;BME280;45870;42.528;26.740;2022-07-06T00:35:52;99453.03;;;21.00;52.17
60019;BME280;45870;42.528;26.740;2022-07-06T00:38:18;99466.03;;;21.44;51.26
60019;BME280;45870;42.528;26.740;2022-07-06T00:40:44;99399.84;;;21.10;50.60
60019;BME280;45870;42.528;26.740;2022-07-06T00:43:10;99467.44;;;21.19;50.99
60019;BME280;45870;42.528;26.740;2022-07-06T00:45:36;99463.88;;;21.19;51.25
60019;BME280;45870;42.528;26.740;2022-07-06T00:48:01;99449.88;;;20.79;51.91
60019;BME280;45870;42.528;26.740;2022-07-06T00:50:27;99469.97;;;21.02;51.26
60019;BME280;45870;42.528;26.740;2022-07-06T00:52:55;99470.66;;;21.08;51.34
60019;BME280;45870;42.528;26.740;2022-07-06T00:55:27;99468.00;;;20.39;52.67
60019;BME280;45870;42.528;26.740;2022-07-06T00:57:54;99438.22;;;20.74;52.13
60019;BME280;45870;42.528;26.740;2022-07-06T01:00:25;99455.34;;;21.20;50.65
60019;BME280;45870;42.528;26.740;2022-07-06T01:02:52;99456.34;;;21.24;51.40
60019;BME280;45870;42.528;26.740;2022-07-06T01:05:18;99453.09;;;21.22;50.59
60019;BME280;45870;42.528;26.740;2022-07-06T01:07:45;99451.97;;;21.23;50.79
60019;BME280;45870;42.528;26.740;2022-07-06T01:10:13;99450.03;;;21.24;50.96
60019;BME280;45870;42.528;26.740;2022-07-06T01:12:41;99391.56;;;20.87;50.96
60019;BME280;45870;42.528;26.740;2022-07-06T01:15:10;99442.69;;;21.33;51.45
60019;BME280;45870;42.528;26.740;2022-07-06T01:17:38;99416.03;;;21.33;50.47
60019;BME280;45870;42.528;26.740;2022-07-06T01:20:24;99440.25;;;21.54;50.30
60019;BME280;45870;42.528;26.740;2022-07-06T01:22:52;99415.09;;;21.16;50.94
60019;BME280;45870;42.528;26.740;2022-07-06T01:25:19;99436.69;;;21.31;51.67
60019;BME280;45870;42.528;26.740;2022-07-06T01:27:45;99390.78;;;21.09;51.63
60019;BME280;45870;42.528;26.740;2022-07-06T01:30:13;99438.75;;;21.48;51.46
60019;BME280;45870;42.528;26.740;2022-07-06T01:32:40;99440.69;;;21.47;51.38
60019;BME280;45870;42.528;26.740;2022-07-06T01:35:08;99453.59;;;21.47;51.16
60019;BME280;45870;42.528;26.740;2022-07-06T01:37:34;99446.19;;;21.47;51.34
60019;BME280;45870;42.528;26.740;2022-07-06T01:40:02;99444.78;;;21.36;52.60
60019;BME280;45870;42.528;26.740;2022-07-06T01:42:28;99443.22;;;20.31;56.58
60019;BME280;45870;42.528;26.740;2022-07-06T01:44:54;99470.03;;;20.61;55.78
60019;BME280;45870;42.528;26.740;2022-07-06T01:47:20;99464.41;;;21.43;52.84
60019;BME280;45870;42.528;26.740;2022-07-06T01:49:46;99426.72;;;21.57;51.43
60019;BME280;45870;42.528;26.740;2022-07-06T01:52:12;99453.00;;;21.50;51.28
60019;BME280;45870;42.528;26.740;2022-07-06T01:54:37;99462.66;;;21.25;51.75
60019;BME280;45870;42.528;26.740;2022-07-06T01:57:03;99474.31;;;21.30;51.33
60019;BME280;45870;42.528;26.740;2022-07-06T01:59:29;99470.31;;;21.36;50.51
60019;BME280;45870;42.528;26.740;2022-07-06T02:01:55;99473.63;;;21.25;51.11
60019;BME280;45870;42.528;26.740;2022-07-06T02:04:21;99470.94;;;20.70;52.60
60019;BME280;45870;42.528;26.740;2022-07-06T02:06:47;99480.38;;;20.91;51.76
60019;BME280;45870;42.528;26.740;2022-07-06T02:09:12;99471.81;;;21.20;50.86
60019;BME280;45870;42.528;26.740;2022-07-06T02:11:38;99466.84;;;20.95;52.00
60019;BME280;45870;42.528;26.740;2022-07-06T02:14:04;99466.97;;;20.76;52.93
60019;BME280;45870;42.528;26.740;2022-07-06T02:16:29;99429.84;;;20.29;53.66
60019;BME280;45870;42.528;26.740;2022-07-06T02:18:55;99451.66;;;20.62;53.13
60019;BME280;45870;42.528;26.740;2022-07-06T02:21:21;99437.53;;;20.68;52.12
60019;BME280;45870;42.528;26.740;2022-07-06T02:23:47;99439.59;;;19.89;54.88
60019;BME280;45870;42.528;26.740;2022-07-06T02:26:13;99435.41;;;19.92;54.55
60019;BME280;45870;42.528;26.740;2022-07-06T02:28:38;99432.97;;;20.64;52.24
60019;BME280;45870;42.528;26.740;2022-07-06T02:31:04;99432.66;;;20.65;52.04
60019;BME280;45870;42.528;26.740;2022-07-06T02:33:30;99437.13;;;20.75;51.84
60019;BME280;45870;42.528;26.740;2022-07-06T02:35:56;99368.41;;;20.44;51.96
60019;BME280;45870;42.528;26.740;2022-07-06T02:38:21;99425.69;;;20.95;52.05
60019;BME280;45870;42.528;26.740;2022-07-06T02:40:47;99427.94;;;20.93;51.96
60019;BME280;45870;42.528;26.740;2022-07-06T02:43:14;99422.31;;;21.12;51.51
60019;BME280;45870;42.528;26.740;2022-07-06T02:45:40;99410.16;;;20.90;52.35
60019;BME280;45870;42.528;26.740;2022-07-06T02:48:05;99409.34;;;20.90;52.58
60019;BME280;45870;42.528;26.740;2022-07-06T02:50:31;99427.09;;;21.06;51.98
60019;BME280;45870;42.528;26.740;2022-07-06T02:52:57;99414.91;;;20.99;52.26
60019;BME280;45870;42.528;26.740;2022-07-06T02:55:24;99409.13;;;21.14;51.95
60019;BME280;45870;42.528;26.740;2022-07-06T02:57:49;99415.47;;;21.23;51.98
60019;BME280;45870;42.528;26.740;2022-07-06T03:00:16;99394.69;;;21.30;52.55
60019;BME280;45870;42.528;26.740;2022-07-06T03:02:42;99412.44;;;22.30;53.77
60019;BME280;45870;42.528;26.740;2022-07-06T03:05:08;99406.63;;;23.31;51.83
60019;BME280;45870;42.528;26.740;2022-07-06T03:07:34;99417.75;;;23.95;49.13
60019;BME280;45870;42.528;26.740;2022-07-06T03:10:00;99413.41;;;24.32;49.31
60019;BME280;45870;42.528;26.740;2022-07-06T03:12:25;99410.81;;;25.15;45.52
60019;BME280;45870;42.528;26.740;2022-07-06T03:14:51;99408.56;;;25.70;47.51
60019;BME280;45870;42.528;26.740;2022-07-06T03:17:16;99421.16;;;26.37;46.20
60019;BME280;45870;42.528;26.740;2022-07-06T03:19:42;99413.28;;;27.95;41.63
60019;BME280;45870;42.528;26.740;2022-07-06T03:22:08;99412.66;;;27.86;41.49
60019;BME280;45870;42.528;26.740;2022-07-06T03:24:34;99404.03;;;28.35;39.44
60019;BME280;45870;42.528;26.740;2022-07-06T03:27:00;99414.84;;;28.40;37.42
60019;BME280;45870;42.528;26.740;2022-07-06T03:29:25;99405.47;;;27.85;37.84
60019;BME280;45870;42.528;26.740;2022-07-06T03:31:51;99406.22;;;27.14;39.30
60019;BME280;45870;42.528;26.740;2022-07-06T03:34:17;99411.66;;;27.51;38.46
60019;BME280;45870;42.528;26.740;2022-07-06T03:36:42;99405.91;;;28.97;36.49
60019;BME280;45870;42.528;26.740;2022-07-06T03:39:08;99405.16;;;31.46;32.52
60019;BME280;45870;42.528;26.740;2022-07-06T03:41:34;99388.31;;;32.53;30.13
60019;BME280;45870;42.528;26.740;2022-07-06T03:44:00;99411.38;;;32.94;30.30
60019;BME280;45870;42.528;26.740;2022-07-06T03:46:25;99414.72;;;34.53;27.70
60019;BME280;45870;42.528;26.740;2022-07-06T03:48:53;99422.72;;;34.94;27.64
60019;BME280;45870;42.528;26.740;2022-07-06T03:51:19;99424.00;;;33.36;29.41
60019;BME280;45870;42.528;26.740;2022-07-06T03:53:45;99425.53;;;31.17;33.06
60019;BME280;45870;42.528;26.740;2022-07-06T03:56:10;99424.31;;;34.45;27.76
60019;BME280;45870;42.528;26.740;2022-07-06T03:58:56;99428.75;;;34.85;27.31
60019;BME280;45870;42.528;26.740;2022-07-06T04:01:23;99423.94;;;34.93;27.50
60019;BME280;45870;42.528;26.740;2022-07-06T04:03:49;99422.31;;;34.53;28.08
60019;BME280;45870;42.528;26.740;2022-07-06T04:06:15;99417.81;;;36.20;25.62
60019;BME280;45870;42.528;26.740;2022-07-06T04:08:41;99418.47;;;38.15;23.30
60019;BME280;45870;42.528;26.740;2022-07-06T04:11:07;99427.84;;;37.47;23.83
60019;BME280;45870;42.528;26.740;2022-07-06T04:13:32;99423.41;;;37.80;23.81
60019;BME280;45870;42.528;26.740;2022-07-06T04:15:58;99418.66;;;38.04;24.08
60019;BME280;45870;42.528;26.740;2022-07-06T04:18:24;99420.28;;;37.07;25.31
60019;BME280;45870;42.528;26.740;2022-07-06T04:20:50;99416.59;;;36.18;26.99
60019;BME280;45870;42.528;26.740;2022-07-06T04:23:16;99413.13;;;36.51;27.00
60019;BME280;45870;42.528;26.740;2022-07-06T04:25:41;99402.00;;;36.37;27.65
60019;BME280;45870;42.528;26.740;2022-07-06T04:28:07;99405.84;;;37.05;26.54
60019;BME280;45870;42.528;26.740;2022-07-06T04:30:33;99406.66;;;37.36;25.23
60019;BME280;45870;42.528;26.740;2022-07-06T04:32:59;99409.31;;;37.16;24.98
60019;BME280;45870;42.528;26.740;2022-07-06T04:35:24;99419.72;;;37.83;24.36
60019;BME280;45870;42.528;26.740;2022-07-06T04:37:50;99422.75;;;37.99;22.87
60019;BME280;45870;42.528;26.740;2022-07-06T04:40:16;99401.59;;;37.84;24.10
60019;BME280;45870;42.528;26.740;2022-07-06T04:42:42;99417.84;;;38.30;23.07
60019;BME280;45870;42.528;26.740;2022-07-06T04:45:08;99414.09;;;38.14;23.65
60019;BME280;45870;42.528;26.740;2022-07-06T04:47:34;99420.69;;;37.06;24.92
60019;BME280;45870;42.528;26.740;2022-07-06T04:50:01;99425.94;;;37.03;25.74
60019;BME280;45870;42.528;26.740;2022-07-06T04:52:27;99412.13;;;36.27;25.56
60019;BME280;45870;42.528;26.740;2022-07-06T04:54:56;99420.72;;;35.99;26.75
60019;BME280;45870;42.528;26.740;2022-07-06T04:57:22;99415.66;;;37.24;25.06
60019;BME280;45870;42.528;26.740;2022-07-06T04:59:51;99419.09;;;37.05;25.00
60019;BME280;45870;42.528;26.740;2022-07-06T05:02:17;99418.16;;;37.82;24.11
60019;BME280;45870;42.528;26.740;2022-07-06T05:04:43;99424.41;;;37.67;24.35
60019;BME280;45870;42.528;26.740;2022-07-06T05:07:09;99423.09;;;37.75;24.12
60019;BME280;45870;42.528;26.740;2022-07-06T05:09:35;99425.94;;;39.41;21.92
60019;BME280;45870;42.528;26.740;2022-07-06T05:12:00;99422.19;;;38.62;22.72
60019;BME280;45870;42.528;26.740;2022-07-06T05:14:26;99391.09;;;38.65;22.63
60019;BME280;45870;42.528;26.740;2022-07-06T05:16:52;99417.66;;;37.87;24.72
60019;BME280;45870;42.528;26.740;2022-07-06T05:19:17;99426.16;;;37.84;24.67
60019;BME280;45870;42.528;26.740;2022-07-06T05:21:43;99411.94;;;36.93;24.93
60019;BME280;45870;42.528;26.740;2022-07-06T05:24:09;99421.38;;;35.44;26.98
60019;BME280;45870;42.528;26.740;2022-07-06T05:26:34;99415.78;;;37.13;26.20
60019;BME280;45870;42.528;26.740;2022-07-06T05:29:00;99303.66;;;35.85;26.12
60019;BME280;45870;42.528;26.740;2022-07-06T05:31:26;99414.78;;;37.94;24.95
60019;BME280;45870;42.528;26.740;2022-07-06T05:33:51;99411.94;;;38.48;23.06
60019;BME280;45870;42.528;26.740;2022-07-06T05:36:17;99421.13;;;38.75;23.40
60019;BME280;45870;42.528;26.740;2022-07-06T05:38:43;99423.66;;;38.70;23.03
60019;BME280;45870;42.528;26.740;2022-07-06T05:41:09;99424.50;;;37.26;25.32
60019;BME280;45870;42.528;26.740;2022-07-06T05:43:36;99416.16;;;37.15;25.20
60019;BME280;45870;42.528;26.740;2022-07-06T05:46:03;99419.25;;;37.88;24.18
60019;BME280;45870;42.528;26.740;2022-07-06T05:48:28;99421.41;;;37.47;23.91
60019;BME280;45870;42.528;26.740;2022-07-06T05:51:13;99419.69;;;37.87;24.46
60019;BME280;45870;42.528;26.740;2022-07-06T05:53:41;99424.38;;;37.97;23.46
60019;BME280;45870;42.528;26.740;2022-07-06T05:56:07;99422.22;;;38.08;23.33
60019;BME280;45870;42.528;26.740;2022-07-06T05:58:34;99433.06;;;39.49;22.80
60019;BME280;45870;42.528;26.740;2022-07-06T06:01:00;99429.50;;;38.06;24.71
60019;BME280;45870;42.528;26.740;2022-07-06T06:03:25;99427.94;;;38.78;22.89
60019;BME280;45870;42.528;26.740;2022-07-06T06:05:51;99420.13;;;37.55;24.43
60019;BME280;45870;42.528;26.740;2022-07-06T06:08:17;99418.13;;;38.39;23.79
60019;BME280;45870;42.528;26.740;2022-07-06T06:10:43;99425.44;;;38.83;22.65
60019;BME280;45870;42.528;26.740;2022-07-06T06:13:24;99428.38;;;36.98;26.22
60019;BME280;45870;42.528;26.740;2022-07-06T06:15:49;99419.00;;;39.65;22.73
60019;BME280;45870;42.528;26.740;2022-07-06T06:18:16;99425.25;;;38.21;24.20
60019;BME280;45870;42.528;26.740;2022-07-06T06:20:45;99421.63;;;35.85;28.00
60019;BME280;45870;42.528;26.740;2022-07-06T06:23:11;99407.06;;;37.34;25.18
60019;BME280;45870;42.528;26.740;2022-07-06T06:25:38;99421.06;;;38.06;24.06
60019;BME280;45870;42.528;26.740;2022-07-06T06:28:07;99429.03;;;35.37;27.51
60019;BME280;45870;42.528;26.740;2022-07-06T06:30:33;99423.84;;;37.79;24.11
60019;BME280;45870;42.528;26.740;2022-07-06T06:33:16;99422.88;;;37.25;25.14
60019;BME280;45870;42.528;26.740;2022-07-06T06:35:47;99421.72;;;37.56;24.58
60019;BME280;45870;42.528;26.740;2022-07-06T06:38:15;99420.41;;;38.21;23.72
60019;BME280;45870;42.528;26.740;2022-07-06T06:40:41;99304.25;;;38.53;22.43
60019;BME280;45870;42.528;26.740;2022-07-06T06:43:08;99420.31;;;37.71;24.01
60019;BME280;45870;42.528;26.740;2022-07-06T06:45:34;99421.53;;;34.59;27.00
60019;BME280;45870;42.528;26.740;2022-07-06T06:48:00;99418.25;;;39.22;21.29
60019;BME280;45870;42.528;26.740;2022-07-06T06:50:25;99428.38;;;37.69;23.50
60019;BME280;45870;42.528;26.740;2022-07-06T06:52:51;99432.84;;;37.97;22.29
60019;BME280;45870;42.528;26.740;2022-07-06T06:55:18;99432.06;;;38.73;21.21
60019;BME280;45870;42.528;26.740;2022-07-06T06:57:44;99426.25;;;36.17;22.69
60019;BME280;45870;42.528;26.740;2022-07-06T07:00:10;99426.91;;;38.68;21.32
60019;BME280;45870;42.528;26.740;2022-07-06T07:02:36;99415.72;;;37.17;23.14
60019;BME280;45870;42.528;26.740;2022-07-06T07:05:02;99421.50;;;36.06;25.95
60019;BME280;45870;42.528;26.740;2022-07-06T07:07:29;99343.88;;;37.39;23.18
60019;BME280;45870;42.528;26.740;2022-07-06T07:09:55;99427.34;;;37.56;22.68
60019;BME280;45870;42.528;26.740;2022-07-06T07:12:20;99433.41;;;38.65;21.57
60019;BME280;45870;42.528;26.740;2022-07-06T07:14:46;99425.94;;;39.41;20.47
60019;BME280;45870;42.528;26.740;2022-07-06T07:17:13;99417.44;;;38.78;20.08
60019;BME280;45870;42.528;26.740;2022-07-06T07:19:39;99421.94;;;37.35;21.45
60019;BME280;45870;42.528;26.740;2022-07-06T07:22:05;99416.28;;;37.05;21.92
60019;BME280;45870;42.528;26.740;2022-07-06T07:24:30;99426.31;;;34.98;25.31
60019;BME280;45870;42.528;26.740;2022-07-06T07:26:56;99399.38;;;35.39;21.61
60019;BME280;45870;42.528;26.740;2022-07-06T07:29:22;99427.53;;;36.60;20.95
60019;BME280;45870;42.528;26.740;2022-07-06T07:31:48;99426.75;;;37.72;18.90
60019;BME280;45870;42.528;26.740;2022-07-06T07:34:14;99427.16;;;39.01;18.84
60019;BME280;45870;42.528;26.740;2022-07-06T07:36:40;99430.31;;;36.05;21.37
60019;BME280;45870;42.528;26.740;2022-07-06T07:39:06;99406.78;;;38.43;18.65
60019;BME280;45870;42.528;26.740;2022-07-06T07:41:31;99290.22;;;39.12;18.58
60019;BME280;45870;42.528;26.740;2022-07-06T07:43:58;99421.06;;;38.79;18.88
60019;BME280;45870;42.528;26.740;2022-07-06T07:46:23;99431.81;;;37.84;18.58
60019;BME280;45870;42.528;26.740;2022-07-06T07:48:49;99427.22;;;38.97;16.78
60019;BME280;45870;42.528;26.740;2022-07-06T07:51:15;99432.84;;;38.97;16.68
60019;BME280;45870;42.528;26.740;2022-07-06T07:53:41;99425.47;;;38.07;18.10
60019;BME280;45870;42.528;26.740;2022-07-06T07:56:06;99422.56;;;39.50;15.86
60019;BME280;45870;42.528;26.740;2022-07-06T07:58:32;99420.22;;;40.52;15.66
60019;BME280;45870;42.528;26.740;2022-07-06T08:00:59;99413.56;;;39.74;15.09
60019;BME280;45870;42.528;26.740;2022-07-06T08:03:25;99414.34;;;39.55;14.87
60019;BME280;45870;42.528;26.740;2022-07-06T08:05:51;99423.91;;;38.29;15.08
60019;BME280;45870;42.528;26.740;2022-07-06T08:08:18;99417.59;;;39.14;15.36
60019;BME280;45870;42.528;26.740;2022-07-06T08:10:44;99421.91;;;40.17;14.83
60019;BME280;45870;42.528;26.740;2022-07-06T08:13:10;99416.88;;;40.25;14.12
60019;BME280;45870;42.528;26.740;2022-07-06T08:15:36;99409.53;;;38.93;17.01
60019;BME280;45870;42.528;26.740;2022-07-06T08:18:03;99406.53;;;37.13;17.86
60019;BME280;45870;42.528;26.740;2022-07-06T08:20:29;99411.34;;;38.33;16.55
60019;BME280;45870;42.528;26.740;2022-07-06T08:22:55;99406.38;;;38.91;14.89
60019;BME280;45870;42.528;26.740;2022-07-06T08:25:21;99416.75;;;37.97;15.83
60019;BME280;45870;42.528;26.740;2022-07-06T08:27:47;99409.00;;;37.75;15.46
60019;BME280;45870;42.528;26.740;2022-07-06T08:30:14;99405.28;;;41.83;14.27
60019;BME280;45870;42.528;26.740;2022-07-06T08:32:41;99407.59;;;41.59;13.35
60019;BME280;45870;42.528;26.740;2022-07-06T08:35:07;99341.53;;;39.99;13.37
60019;BME280;45870;42.528;26.740;2022-07-06T08:37:33;99407.44;;;39.40;13.71
60019;BME280;45870;42.528;26.740;2022-07-06T08:39:59;99403.56;;;39.70;13.61
60019;BME280;45870;42.528;26.740;2022-07-06T08:42:31;99379.31;;;41.02;12.19
60019;BME280;45870;42.528;26.740;2022-07-06T08:45:00;99400.59;;;40.77;12.24
60019;BME280;45870;42.528;26.740;2022-07-06T08:47:28;99410.81;;;39.31;14.20
60019;BME280;45870;42.528;26.740;2022-07-06T08:49:54;99397.41;;;38.23;16.75
60019;BME280;45870;42.528;26.740;2022-07-06T08:52:22;99401.97;;;38.17;15.40
60019;BME280;45870;42.528;26.740;2022-07-06T08:54:48;99396.13;;;39.40;14.55
60019;BME280;45870;42.528;26.740;2022-07-06T08:57:14;99321.44;;;41.57;12.76
60019;BME280;45870;42.528;26.740;2022-07-06T08:59:40;99383.44;;;40.52;14.54
60019;BME280;45870;42.528;26.740;2022-07-06T09:02:06;99383.16;;;37.80;15.47
60019;BME280;45870;42.528;26.740;2022-07-06T09:04:33;99370.06;;;37.96;16.68
60019;BME280;45870;42.528;26.740;2022-07-06T09:07:01;99388.09;;;39.38;16.32
60019;BME280;45870;42.528;26.740;2022-07-06T09:09:29;99339.06;;;39.09;15.13
60019;BME280;45870;42.528;26.740;2022-07-06T09:11:57;99384.31;;;38.36;15.53
60019;BME280;45870;42.528;26.740;2022-07-06T09:14:23;99365.03;;;37.81;16.29
60019;BME280;45870;42.528;26.740;2022-07-06T09:17:01;99386.69;;;39.07;15.78
60019;BME280;45870;42.528;26.740;2022-07-06T09:19:31;99384.91;;;39.36;14.13
60019;BME280;45870;42.528;26.740;2022-07-06T09:21:57;99378.94;;;40.22;13.51
60019;BME280;45870;42.528;26.740;2022-07-06T09:24:23;99376.47;;;39.53;15.15
60019;BME280;45870;42.528;26.740;2022-07-06T09:26:49;99378.44;;;38.96;13.85
60019;BME280;45870;42.528;26.740;2022-07-06T09:29:15;99378.91;;;40.06;15.74
60019;BME280;45870;42.528;26.740;2022-07-06T09:31:41;99371.38;;;40.97;12.91
60019;BME280;45870;42.528;26.740;2022-07-06T09:34:08;99367.16;;;40.40;13.58
60019;BME280;45870;42.528;26.740;2022-07-06T09:36:47;99367.16;;;40.40;13.96
60019;BME280;45870;42.528;26.740;2022-07-06T09:39:27;99365.94;;;37.74;15.04
60019;BME280;45870;42.528;26.740;2022-07-06T09:41:55;99377.53;;;38.57;14.44
60019;BME280;45870;42.528;26.740;2022-07-06T09:44:30;99374.34;;;39.76;14.82
60019;BME280;45870;42.528;26.740;2022-07-06T09:46:59;99373.53;;;38.77;15.31
60019;BME280;45870;42.528;26.740;2022-07-06T09:49:25;99377.72;;;39.71;13.06
60019;BME280;45870;42.528;26.740;2022-07-06T09:51:54;99384.72;;;41.79;11.59
60019;BME280;45870;42.528;26.740;2022-07-06T09:54:20;99222.09;;;39.30;11.35
60019;BME280;45870;42.528;26.740;2022-07-06T09:56:48;99366.50;;;39.09;14.39
60019;BME280;45870;42.528;26.740;2022-07-06T09:59:20;99362.53;;;42.15;13.11
60019;BME280;45870;42.528;26.740;2022-07-06T10:01:47;99284.78;;;39.57;13.14
60019;BME280;45870;42.528;26.740;2022-07-06T10:04:15;99364.63;;;41.73;14.09
60019;BME280;45870;42.528;26.740;2022-07-06T10:06:44;99305.97;;;42.33;12.97
60019;BME280;45870;42.528;26.740;2022-07-06T10:09:12;99254.19;;;43.29;11.26
60019;BME280;45870;42.528;26.740;2022-07-06T10:11:40;99362.94;;;41.63;11.31
60019;BME280;45870;42.528;26.740;2022-07-06T10:14:08;99221.03;;;38.65;13.40
60019;BME280;45870;42.528;26.740;2022-07-06T10:16:37;99360.44;;;39.85;13.91
60019;BME280;45870;42.528;26.740;2022-07-06T10:19:07;99350.16;;;38.77;13.03
60019;BME280;45870;42.528;26.740;2022-07-06T10:21:36;99351.13;;;38.47;12.97
60019;BME280;45870;42.528;26.740;2022-07-06T10:24:04;99286.19;;;38.04;14.59
60019;BME280;45870;42.528;26.740;2022-07-06T10:26:30;99344.53;;;38.77;12.17
60019;BME280;45870;42.528;26.740;2022-07-06T10:28:58;99339.38;;;42.04;12.29
60019;BME280;45870;42.528;26.740;2022-07-06T10:31:26;99340.28;;;41.76;11.32
60019;BME280;45870;42.528;26.740;2022-07-06T10:33:56;99336.91;;;41.27;12.12
60019;BME280;45870;42.528;26.740;2022-07-06T10:36:23;99326.78;;;40.39;13.31
60019;BME280;45870;42.528;26.740;2022-07-06T10:38:51;99343.81;;;39.52;13.53
60019;BME280;45870;42.528;26.740;2022-07-06T10:41:18;99332.66;;;41.48;13.26
60019;BME280;45870;42.528;26.740;2022-07-06T10:43:45;99333.69;;;42.98;11.32
60019;BME280;45870;42.528;26.740;2022-07-06T10:46:13;99333.44;;;43.89;10.01
60019;BME280;45870;42.528;26.740;2022-07-06T10:48:45;99329.31;;;39.69;13.92
60019;BME280;45870;42.528;26.740;2022-07-06T10:51:12;99325.41;;;38.18;14.40
60019;BME280;45870;42.528;26.740;2022-07-06T10:53:39;99334.81;;;39.40;15.78
60019;BME280;45870;42.528;26.740;2022-07-06T10:56:07;99328.38;;;41.81;14.54
60019;BME280;45870;42.528;26.740;2022-07-06T10:58:47;99327.84;;;42.80;13.33
60019;BME280;45870;42.528;26.740;2022-07-06T11:01:14;99320.28;;;42.99;12.97
60019;BME280;45870;42.528;26.740;2022-07-06T11:03:45;99330.94;;;40.67;14.68
60019;BME280;45870;42.528;26.740;2022-07-06T11:06:20;99319.78;;;41.97;13.27
60019;BME280;45870;42.528;26.740;2022-07-06T11:19:16;99304.78;;;36.39;16.50
60019;BME280;45870;42.528;26.740;2022-07-06T11:21:45;99296.16;;;36.61;16.89
60019;BME280;45870;42.528;26.740;2022-07-06T11:24:18;99292.28;;;35.41;17.65
60019;BME280;45870;42.528;26.740;2022-07-06T11:26:48;99276.91;;;35.67;17.19
60019;BME280;45870;42.528;26.740;2022-07-06T11:29:15;99291.16;;;38.20;17.60
60019;BME280;45870;42.528;26.740;2022-07-06T11:31:45;99280.88;;;38.10;15.80
60019;BME280;45870;42.528;26.740;2022-07-06T11:34:12;99277.94;;;38.17;16.73
60019;BME280;45870;42.528;26.740;2022-07-06T11:36:40;99242.03;;;39.39;13.96
60019;BME280;45870;42.528;26.740;2022-07-06T11:39:06;99280.31;;;38.18;17.14
60019;BME280;45870;42.528;26.740;2022-07-06T11:41:32;99222.31;;;36.53;17.63
60019;BME280;45870;42.528;26.740;2022-07-06T11:43:59;99275.34;;;36.14;17.65
60019;BME280;45870;42.528;26.740;2022-07-06T11:48:58;99264.03;;;39.48;17.73
60019;BME280;45870;42.528;26.740;2022-07-06T11:51:26;99246.66;;;39.81;16.16
60019;BME280;45870;42.528;26.740;2022-07-06T11:53:56;99281.59;;;38.80;17.65
60019;BME280;45870;42.528;26.740;2022-07-06T11:56:23;99242.47;;;37.69;17.22
60019;BME280;45870;42.528;26.740;2022-07-06T11:58:52;99267.31;;;36.90;17.18
60019;BME280;45870;42.528;26.740;2022-07-06T12:01:19;99266.28;;;36.74;17.47
60019;BME280;45870;42.528;26.740;2022-07-06T12:03:46;99257.56;;;37.82;17.03
60019;BME280;45870;42.528;26.740;2022-07-06T12:06:14;99249.88;;;37.33;19.37
60019;BME280;45870;42.528;26.740;2022-07-06T12:08:43;99252.28;;;37.31;18.69
60019;BME280;45870;42.528;26.740;2022-07-06T12:11:10;99246.31;;;35.79;19.31
60019;BME280;45870;42.528;26.740;2022-07-06T12:13:37;99244.53;;;37.12;20.16
60019;BME280;45870;42.528;26.740;2022-07-06T12:16:14;99240.22;;;37.61;18.46
60019;BME280;45870;42.528;26.740;2022-07-06T12:18:46;99248.28;;;38.71;17.01
60019;BME280;45870;42.528;26.740;2022-07-06T12:21:16;99246.72;;;38.70;17.11
60019;BME280;45870;42.528;26.740;2022-07-06T12:23:46;99243.63;;;39.40;16.77
60019;BME280;45870;42.528;26.740;2022-07-06T12:26:13;99249.63;;;38.86;16.38
60019;BME280;45870;42.528;26.740;2022-07-06T12:28:41;99242.41;;;37.46;17.45
60019;BME280;45870;42.528;26.740;2022-07-06T12:31:07;99243.94;;;36.93;17.80
60019;BME280;45870;42.528;26.740;2022-07-06T12:33:33;99176.97;;;36.51;18.53
60019;BME280;45870;42.528;26.740;2022-07-06T12:36:14;99241.03;;;37.31;18.27
60019;BME280;45870;42.528;26.740;2022-07-06T12:38:46;99245.09;;;36.66;19.59
60019;BME280;45870;42.528;26.740;2022-07-06T12:41:30;99238.28;;;36.63;18.67
60019;BME280;45870;42.528;26.740;2022-07-06T12:44:05;99238.50;;;36.01;18.52
60019;BME280;45870;42.528;26.740;2022-07-06T12:46:36;99239.03;;;39.30;17.63
60019;BME280;45870;42.528;26.740;2022-07-06T12:49:11;99226.69;;;38.45;17.49
60019;BME280;45870;42.528;26.740;2022-07-06T12:51:55;99236.28;;;39.07;17.16
60019;BME280;45870;42.528;26.740;2022-07-06T12:54:22;99229.84;;;39.26;16.68
60019;BME280;45870;42.528;26.740;2022-07-06T12:57:03;99203.50;;;42.66;13.55
60019;BME280;45870;42.528;26.740;2022-07-06T12:59:32;99229.59;;;42.39;13.87
60019;BME280;45870;42.528;26.740;2022-07-06T13:01:58;99224.03;;;38.34;18.08
60019;BME280;45870;42.528;26.740;2022-07-06T13:04:25;99230.19;;;42.34;14.74